createdAt,value
2022-07-25T00:00:10.676Z,49.43
2022-07-25T00:01:10.670Z,49.58
2022-07-25T00:02:10.741Z,34.40
2022-07-25T00:03:11.001Z,38.62
2022-07-25T00:04:11.269Z,45.54
2022-07-25T00:05:10.642Z,42.78
2022-07-25T00:06:13.348Z,39.45
2022-07-25T00:07:11.624Z,45.15
2022-07-25T00:08:10.618Z,34.69
2022-07-25T00:09:10.635Z,38.89
2022-07-25T00:10:10.604Z,39.48
2022-07-25T00:11:10.589Z,36.67
2022-07-25T00:12:11.293Z,35.57
2022-07-25T00:13:10.573Z,36.99
2022-07-25T00:14:10.814Z,42.32
2022-07-25T00:15:10.568Z,38.85
2022-07-25T00:16:10.617Z,41.18
2022-07-25T00:17:10.545Z,41.37
2022-07-25T00:18:10.536Z,33.32
2022-07-25T00:19:10.564Z,34.39
2022-07-25T00:20:10.521Z,40.54
2022-07-25T00:21:10.519Z,45.04
2022-07-25T00:22:10.504Z,39.64
2022-07-25T00:23:10.501Z,35.84
2022-07-25T00:24:10.769Z,45.66
2022-07-25T00:25:10.483Z,33.46
2022-07-25T00:26:10.482Z,43.81
2022-07-25T00:27:10.467Z,42.08
2022-07-25T00:28:10.458Z,53.97
2022-07-25T00:29:10.480Z,37.36
2022-07-25T00:30:10.442Z,42.19
2022-07-25T00:31:10.527Z,44.07
2022-07-25T00:32:10.423Z,35.46
2022-07-25T00:33:10.416Z,44.41
2022-07-25T00:34:10.900Z,40.58
2022-07-25T00:35:10.399Z,42.50
2022-07-25T00:36:10.413Z,50.87
2022-07-25T00:37:10.393Z,40.26
2022-07-25T00:38:10.376Z,48.26
2022-07-25T00:39:10.390Z,42.01
2022-07-25T00:40:10.358Z,38.69
2022-07-25T00:41:10.358Z,47.90
2022-07-25T00:42:10.343Z,35.55
2022-07-25T00:43:10.334Z,42.01
2022-07-25T00:44:10.381Z,39.04
2022-07-25T00:45:10.321Z,47.54
2022-07-25T00:46:10.341Z,33.72
2022-07-25T00:47:10.314Z,34.99
2022-07-25T00:48:10.297Z,44.37
2022-07-25T00:49:11.401Z,32.00
2022-07-25T00:50:10.286Z,32.44
2022-07-25T00:51:10.271Z,37.13
2022-07-25T00:52:11.268Z,32.00
2022-07-25T00:53:10.264Z,32.35
2022-07-25T00:54:10.277Z,40.37
2022-07-25T00:55:10.248Z,39.69
2022-07-25T00:56:10.240Z,36.72
2022-07-25T00:57:10.231Z,55.29
2022-07-25T00:58:10.231Z,38.13
2022-07-25T00:59:10.245Z,36.32
2022-07-25T01:00:10.211Z,33.98
2022-07-25T01:01:10.281Z,33.51
2022-07-25T01:02:10.225Z,47.26
2022-07-25T01:03:10.241Z,50.06
2022-07-25T01:04:10.222Z,45.02
2022-07-25T01:05:10.416Z,40.98
2022-07-25T01:06:10.158Z,35.33
2022-07-25T01:07:11.160Z,55.08
2022-07-25T01:08:10.156Z,38.46
2022-07-25T01:09:10.178Z,35.37
2022-07-25T01:10:11.134Z,33.39
2022-07-25T01:11:10.136Z,46.41
2022-07-25T01:12:10.123Z,38.55
2022-07-25T01:13:10.114Z,54.81
2022-07-25T01:14:42.044Z,35.62
2022-07-25T01:15:10.096Z,41.00
2022-07-25T01:16:10.137Z,39.88
2022-07-25T01:17:10.081Z,40.41
2022-07-25T01:18:10.077Z,55.17
2022-07-25T01:19:10.206Z,46.55
2022-07-25T01:20:10.061Z,40.39
2022-07-25T01:21:10.062Z,35.26
2022-07-25T01:22:10.046Z,35.16
2022-07-25T01:23:10.036Z,46.29
2022-07-25T01:24:10.049Z,44.18
2022-07-25T01:25:10.020Z,57.08
2022-07-25T01:26:10.016Z,33.75
2022-07-25T01:27:10.025Z,34.31
2022-07-25T01:28:10.998Z,38.47
2022-07-25T01:29:10.023Z,32.00
2022-07-25T01:30:09.982Z,32.68
2022-07-25T01:31:10.026Z,36.26
2022-07-25T01:32:09.965Z,36.54
2022-07-25T01:33:09.963Z,32.47
2022-07-25T01:34:10.191Z,41.25
2022-07-25T01:35:09.942Z,41.71
2022-07-25T01:36:09.938Z,37.06
2022-07-25T01:37:09.925Z,53.33
2022-07-25T01:38:09.923Z,41.83
2022-07-25T01:39:09.941Z,42.27
2022-07-25T01:40:09.909Z,38.94
2022-07-25T01:41:09.895Z,40.18
2022-07-25T01:42:09.885Z,33.04
2022-07-25T01:43:09.882Z,47.02
2022-07-25T01:44:10.282Z,42.11
2022-07-25T01:45:09.859Z,35.73
2022-07-25T01:46:09.892Z,49.32
2022-07-25T01:47:09.855Z,38.20
2022-07-25T01:48:09.847Z,37.23
2022-07-25T01:49:09.906Z,47.38
2022-07-25T01:50:10.826Z,35.54
2022-07-25T01:51:09.825Z,43.15
2022-07-25T01:52:09.808Z,50.32
2022-07-25T01:53:09.804Z,51.59
2022-07-25T01:54:10.459Z,45.49
2022-07-25T01:55:09.794Z,36.37
2022-07-25T01:56:10.164Z,47.90
2022-07-25T01:57:09.776Z,43.16
2022-07-25T01:58:09.770Z,52.17
2022-07-25T01:59:09.787Z,45.81
2022-07-25T02:00:09.754Z,48.01
2022-07-25T02:01:09.812Z,43.41
2022-07-25T02:02:09.734Z,44.19
2022-07-25T02:03:09.727Z,34.41
2022-07-25T02:04:10.302Z,42.18
2022-07-25T02:05:09.750Z,47.70
2022-07-25T02:06:09.711Z,51.89
2022-07-25T02:07:09.697Z,46.29
2022-07-25T02:08:09.944Z,49.83
2022-07-25T02:09:09.708Z,54.98
2022-07-25T02:10:09.705Z,50.90
2022-07-25T02:11:09.668Z,52.13
2022-07-25T02:12:09.662Z,38.41
2022-07-25T02:13:09.656Z,36.66
2022-07-25T02:14:09.878Z,40.08
2022-07-25T02:15:09.666Z,48.35
2022-07-25T02:16:09.633Z,37.54
2022-07-25T02:17:09.672Z,45.82
2022-07-25T02:18:09.632Z,51.52
2022-07-25T02:19:09.613Z,41.72
2022-07-25T02:20:09.628Z,49.39
2022-07-25T02:21:13.936Z,40.46
2022-07-25T02:22:10.592Z,38.27
2022-07-25T02:23:09.583Z,44.01
2022-07-25T02:24:10.075Z,35.86
2022-07-25T02:25:09.593Z,37.76
2022-07-25T02:26:09.561Z,44.60
2022-07-25T02:27:09.559Z,46.33
2022-07-25T02:28:10.462Z,47.77
2022-07-25T02:29:09.541Z,49.35
2022-07-25T02:30:09.560Z,45.07
2022-07-25T02:31:09.577Z,43.54
2022-07-25T02:32:09.519Z,44.99
2022-07-25T02:33:09.521Z,51.11
2022-07-25T02:34:09.775Z,44.64
2022-07-25T02:35:09.944Z,47.10
2022-07-25T02:36:09.490Z,34.16
2022-07-25T02:37:09.480Z,39.69
2022-07-25T02:38:09.475Z,40.95
2022-07-25T02:39:09.464Z,46.88
2022-07-25T02:40:09.485Z,46.00
2022-07-25T02:41:09.456Z,44.78
2022-07-25T02:42:09.440Z,44.13
2022-07-25T02:43:09.437Z,44.77
2022-07-25T02:44:09.782Z,46.87
2022-07-25T02:45:09.466Z,46.69
2022-07-25T02:46:09.487Z,50.25
2022-07-25T02:47:09.404Z,51.39
2022-07-25T02:48:09.401Z,53.21
2022-07-25T02:49:09.446Z,49.77
2022-07-25T02:50:09.421Z,43.62
2022-07-25T02:51:10.375Z,45.68
2022-07-25T02:52:09.381Z,39.78
2022-07-25T02:53:09.362Z,49.56
2022-07-25T02:54:09.537Z,45.32
2022-07-25T02:55:09.982Z,48.57
2022-07-25T02:56:10.359Z,42.87
2022-07-25T02:57:09.333Z,51.93
2022-07-25T02:58:09.328Z,54.27
2022-07-25T02:59:09.319Z,54.41
2022-07-25T03:00:09.342Z,45.19
2022-07-25T03:01:09.361Z,54.74
2022-07-25T03:02:09.303Z,55.56
2022-07-25T03:03:09.285Z,58.27
2022-07-25T03:04:09.966Z,51.64
2022-07-25T03:05:09.321Z,52.44
2022-07-25T03:06:09.267Z,45.39
2022-07-25T03:07:09.277Z,51.50
2022-07-25T03:08:09.254Z,46.89
2022-07-25T03:09:09.232Z,44.04
2022-07-25T03:10:11.556Z,50.03
2022-07-25T03:11:09.232Z,50.49
2022-07-25T03:12:09.228Z,46.70
2022-07-25T03:13:09.230Z,49.38
2022-07-25T03:14:09.740Z,46.00
2022-07-25T03:15:09.233Z,50.30
2022-07-25T03:16:09.213Z,46.96
2022-07-25T03:17:09.237Z,51.43
2022-07-25T03:18:09.175Z,54.06
2022-07-25T03:19:09.173Z,50.89
2022-07-25T03:20:09.191Z,48.06
2022-07-25T03:21:09.150Z,54.09
2022-07-25T03:22:09.144Z,54.21
2022-07-25T03:23:09.136Z,54.34
2022-07-25T03:24:09.452Z,48.77
2022-07-25T03:25:15.761Z,55.66
2022-07-25T03:26:10.120Z,47.00
2022-07-25T03:27:09.103Z,50.22
2022-07-25T03:28:09.095Z,51.45
2022-07-25T03:29:09.086Z,56.83
2022-07-25T03:30:09.105Z,57.37
2022-07-25T03:31:09.077Z,55.45
2022-07-25T03:32:09.141Z,55.34
2022-07-25T03:33:09.061Z,48.19
2022-07-25T03:34:09.260Z,52.83
2022-07-25T03:35:09.069Z,44.16
2022-07-25T03:36:09.032Z,57.52
2022-07-25T03:37:09.023Z,57.66
2022-07-25T03:38:09.018Z,54.37
2022-07-25T03:39:09.013Z,55.76
2022-07-25T03:40:09.019Z,54.85
2022-07-25T03:41:10.010Z,54.22
2022-07-25T03:42:08.986Z,53.07
2022-07-25T03:43:08.981Z,57.04
2022-07-25T03:44:09.729Z,54.52
2022-07-25T03:45:08.985Z,53.40
2022-07-25T03:46:09.020Z,52.87
2022-07-25T03:47:08.953Z,57.04
2022-07-25T03:48:09.957Z,49.24
2022-07-25T03:49:08.988Z,53.35
2022-07-25T03:50:08.951Z,57.44
2022-07-25T03:51:08.920Z,53.49
2022-07-25T03:52:08.917Z,53.89
2022-07-25T03:53:09.197Z,54.23
2022-07-25T03:54:09.336Z,49.12
2022-07-25T03:55:08.914Z,54.07
2022-07-25T03:56:08.886Z,56.45
2022-07-25T03:57:08.885Z,55.51
2022-07-25T03:58:08.872Z,56.02
2022-07-25T03:59:08.866Z,51.26
2022-07-25T04:00:08.885Z,53.06
2022-07-25T04:01:08.913Z,49.86
2022-07-25T04:02:08.884Z,60.20
2022-07-25T04:03:08.836Z,53.84
2022-07-25T04:04:09.158Z,51.04
2022-07-25T04:05:08.847Z,54.90
2022-07-25T04:06:08.817Z,51.08
2022-07-25T04:07:08.807Z,51.21
2022-07-25T04:08:08.800Z,55.23
2022-07-25T04:09:08.792Z,58.73
2022-07-25T04:10:08.808Z,53.33
2022-07-25T04:11:08.769Z,54.52
2022-07-25T04:12:08.770Z,51.11
2022-07-25T04:13:08.752Z,55.40
2022-07-25T04:14:09.064Z,56.34
2022-07-25T04:15:08.770Z,53.63
2022-07-25T04:16:12.981Z,52.03
2022-07-25T04:17:10.789Z,52.65
2022-07-25T04:18:08.718Z,55.75
2022-07-25T04:19:08.753Z,51.47
2022-07-25T04:20:08.729Z,54.00
2022-07-25T04:21:08.693Z,56.82
2022-07-25T04:22:08.683Z,55.97
2022-07-25T04:23:08.679Z,51.41
2022-07-25T04:24:09.160Z,52.90
2022-07-25T04:25:08.690Z,54.00
2022-07-25T04:26:08.658Z,55.03
2022-07-25T04:27:08.651Z,49.24
2022-07-25T04:28:08.636Z,54.46
2022-07-25T04:29:08.632Z,55.93
2022-07-25T04:30:08.650Z,54.86
2022-07-25T04:31:08.618Z,54.12
2022-07-25T04:32:08.656Z,54.14
2022-07-25T04:33:08.602Z,57.05
2022-07-25T04:34:08.979Z,57.90
2022-07-25T04:35:08.613Z,52.47
2022-07-25T04:36:08.575Z,53.86
2022-07-25T04:37:08.578Z,53.24
2022-07-25T04:38:12.052Z,55.13
2022-07-25T04:39:09.554Z,49.28
2022-07-25T04:40:08.571Z,55.26
2022-07-25T04:41:08.541Z,50.42
2022-07-25T04:42:08.540Z,52.92
2022-07-25T04:43:08.531Z,55.88
2022-07-25T04:44:09.246Z,56.12
2022-07-25T04:45:08.537Z,54.99
2022-07-25T04:46:08.587Z,55.04
2022-07-25T04:47:08.495Z,55.20
2022-07-25T04:48:08.487Z,53.78
2022-07-25T04:49:08.609Z,54.70
2022-07-25T04:50:08.509Z,50.39
2022-07-25T04:51:08.464Z,49.58
2022-07-25T04:52:08.462Z,53.26
2022-07-25T04:53:08.456Z,56.92
2022-07-25T04:54:08.850Z,55.70
2022-07-25T04:55:08.457Z,51.62
2022-07-25T04:56:08.429Z,55.50
2022-07-25T04:57:08.428Z,51.25
2022-07-25T04:58:08.418Z,56.19
2022-07-25T04:59:08.405Z,56.61
2022-07-25T05:00:08.424Z,54.00
2022-07-25T05:01:08.426Z,52.21
2022-07-25T05:02:08.430Z,53.28
2022-07-25T05:03:08.371Z,55.46
2022-07-25T05:04:08.630Z,54.21
2022-07-25T05:05:08.400Z,52.30
2022-07-25T05:06:09.340Z,48.30
2022-07-25T05:07:09.342Z,51.84
2022-07-25T05:08:08.334Z,53.70
2022-07-25T05:09:08.328Z,53.19
2022-07-25T05:10:08.322Z,52.24
2022-07-25T05:11:08.336Z,54.32
2022-07-25T05:12:08.301Z,57.62
2022-07-25T05:13:08.291Z,52.40
2022-07-25T05:14:08.626Z,53.95
2022-07-25T05:15:08.277Z,54.11
2022-07-25T05:16:08.329Z,53.46
2022-07-25T05:17:08.280Z,55.30
2022-07-25T05:18:08.254Z,56.76
2022-07-25T05:19:08.249Z,54.44
2022-07-25T05:20:08.238Z,57.53
2022-07-25T05:21:08.255Z,57.89
2022-07-25T05:22:08.226Z,55.15
2022-07-25T05:23:08.217Z,53.32
2022-07-25T05:24:08.578Z,51.50
2022-07-25T05:25:08.230Z,51.32
2022-07-25T05:26:08.221Z,52.46
2022-07-25T05:27:08.188Z,58.50
2022-07-25T05:28:08.178Z,53.72
2022-07-25T05:29:09.174Z,49.34
2022-07-25T05:30:08.170Z,53.67
2022-07-25T05:31:08.282Z,55.84
2022-07-25T05:32:08.166Z,54.16
2022-07-25T05:33:08.146Z,55.15
2022-07-25T05:34:08.425Z,51.80
2022-07-25T05:35:08.164Z,56.94
2022-07-25T05:36:09.149Z,53.92
2022-07-25T05:37:08.116Z,56.04
2022-07-25T05:38:08.110Z,49.80
2022-07-25T05:39:08.100Z,55.33
2022-07-25T05:40:08.095Z,52.23
2022-07-25T05:41:08.113Z,54.21
2022-07-25T05:42:08.085Z,53.76
2022-07-25T05:43:08.076Z,52.73
2022-07-25T05:44:08.326Z,54.09
2022-07-25T05:45:08.060Z,51.85
2022-07-25T05:46:08.083Z,56.31
2022-07-25T05:47:08.116Z,53.30
2022-07-25T05:48:08.038Z,53.11
2022-07-25T05:49:08.066Z,54.12
2022-07-25T05:50:08.022Z,54.63
2022-07-25T05:51:08.044Z,52.22
2022-07-25T05:52:12.509Z,53.19
2022-07-25T05:53:10.002Z,53.89
2022-07-25T05:54:08.324Z,54.29
2022-07-25T05:55:07.982Z,47.63
2022-07-25T05:56:08.006Z,54.80
2022-07-25T05:57:07.974Z,50.02
2022-07-25T05:58:07.965Z,52.16
2022-07-25T05:59:07.958Z,50.68
2022-07-25T06:00:07.955Z,50.45
2022-07-25T06:01:07.968Z,53.98
2022-07-25T06:02:08.049Z,48.37
2022-07-25T06:03:08.010Z,52.43
2022-07-25T06:04:08.293Z,51.94
2022-07-25T06:05:07.915Z,53.58
2022-07-25T06:06:07.927Z,55.18
2022-07-25T06:07:07.893Z,53.95
2022-07-25T06:08:07.885Z,51.82
2022-07-25T06:09:08.211Z,52.63
2022-07-25T06:10:07.873Z,52.66
2022-07-25T06:11:08.311Z,56.15
2022-07-25T06:12:07.855Z,52.10
2022-07-25T06:13:07.848Z,50.69
2022-07-25T06:14:08.134Z,52.26
2022-07-25T06:15:07.832Z,54.10
2022-07-25T06:16:07.905Z,49.39
2022-07-25T06:17:07.811Z,46.81
2022-07-25T06:18:07.814Z,51.72
2022-07-25T06:19:07.811Z,53.29
2022-07-25T06:20:07.800Z,52.83
2022-07-25T06:21:07.818Z,49.34
2022-07-25T06:22:07.775Z,53.36
2022-07-25T06:23:07.775Z,53.94
2022-07-25T06:24:08.121Z,54.16
2022-07-25T06:25:07.761Z,53.24
2022-07-25T06:26:07.778Z,55.25
2022-07-25T06:27:07.746Z,53.74
2022-07-25T06:28:07.743Z,51.05
2022-07-25T06:29:07.734Z,55.98
2022-07-25T06:30:18.769Z,52.04
2022-07-25T06:31:09.803Z,51.24
2022-07-25T06:32:07.714Z,50.26
2022-07-25T06:33:07.736Z,53.16
2022-07-25T06:34:08.001Z,53.54
2022-07-25T06:35:07.700Z,51.67
2022-07-25T06:36:07.717Z,52.68
2022-07-25T06:37:07.681Z,53.85
2022-07-25T06:38:07.669Z,55.44
2022-07-25T06:39:07.660Z,54.35
2022-07-25T06:40:07.679Z,51.53
2022-07-25T06:41:07.667Z,54.62
2022-07-25T06:42:07.643Z,52.42
2022-07-25T06:43:07.633Z,49.83
2022-07-25T06:44:08.279Z,52.21
2022-07-25T06:45:07.613Z,53.15
2022-07-25T06:46:07.747Z,45.16
2022-07-25T06:47:07.665Z,55.03
2022-07-25T06:48:07.590Z,51.55
2022-07-25T06:49:07.640Z,54.46
2022-07-25T06:50:07.597Z,56.97
2022-07-25T06:51:07.590Z,48.54
2022-07-25T06:52:07.552Z,52.37
2022-07-25T06:53:07.552Z,54.66
2022-07-25T06:54:07.920Z,50.78
2022-07-25T06:55:07.541Z,53.67
2022-07-25T06:56:07.545Z,53.73
2022-07-25T06:57:07.520Z,48.29
2022-07-25T06:58:07.514Z,47.30
2022-07-25T06:59:07.505Z,48.13
2022-07-25T07:00:07.500Z,54.41
2022-07-25T07:01:07.579Z,49.16
2022-07-25T07:02:07.484Z,52.76
2022-07-25T07:03:07.526Z,52.40
2022-07-25T07:04:07.808Z,53.09
2022-07-25T07:05:07.459Z,54.30
2022-07-25T07:06:07.474Z,51.47
2022-07-25T07:07:07.442Z,45.82
2022-07-25T07:08:07.432Z,55.28
2022-07-25T07:09:07.447Z,53.56
2022-07-25T07:10:07.436Z,46.30
2022-07-25T07:11:07.433Z,50.51
2022-07-25T07:12:07.403Z,45.89
2022-07-25T07:13:07.631Z,50.40
2022-07-25T07:14:39.899Z,58.50
2022-07-25T07:15:07.376Z,50.55
2022-07-25T07:16:07.441Z,51.09
2022-07-25T07:17:07.363Z,53.99
2022-07-25T07:18:07.368Z,50.83
2022-07-25T07:19:07.644Z,53.21
2022-07-25T07:20:08.344Z,50.78
2022-07-25T07:21:07.348Z,48.50
2022-07-25T07:22:08.327Z,53.17
2022-07-25T07:23:07.324Z,47.68
2022-07-25T07:24:18.500Z,53.55
2022-07-25T07:25:08.315Z,53.95
2022-07-25T07:26:07.472Z,51.69
2022-07-25T07:27:07.292Z,52.51
2022-07-25T07:28:07.281Z,52.87
2022-07-25T07:29:07.529Z,54.88
2022-07-25T07:30:07.270Z,53.81
2022-07-25T07:31:16.422Z,49.56
2022-07-25T07:32:09.290Z,47.82
2022-07-25T07:33:07.245Z,51.77
2022-07-25T07:34:07.228Z,52.48
2022-07-25T07:35:07.225Z,53.08
2022-07-25T07:36:07.219Z,48.13
2022-07-25T07:37:07.236Z,57.97
2022-07-25T07:38:07.219Z,54.45
2022-07-25T07:39:07.643Z,52.28
2022-07-25T07:40:07.184Z,49.95
2022-07-25T07:41:07.192Z,56.25
2022-07-25T07:42:07.199Z,52.74
2022-07-25T07:43:07.164Z,50.26
2022-07-25T07:44:07.156Z,51.02
2022-07-25T07:45:07.147Z,52.73
2022-07-25T07:46:07.183Z,56.17
2022-07-25T07:47:07.160Z,53.67
2022-07-25T07:48:08.126Z,50.56
2022-07-25T07:49:08.571Z,49.62
2022-07-25T07:50:07.109Z,54.33
2022-07-25T07:51:07.100Z,49.75
2022-07-25T07:52:07.123Z,52.15
2022-07-25T07:53:07.088Z,50.23
2022-07-25T07:54:07.074Z,52.53
2022-07-25T07:55:07.061Z,52.31
2022-07-25T07:56:08.065Z,53.35
2022-07-25T07:57:07.076Z,49.37
2022-07-25T07:58:08.050Z,52.51
2022-07-25T07:59:07.451Z,52.10
2022-07-25T08:00:07.038Z,48.90
2022-07-25T08:01:07.034Z,47.63
2022-07-25T08:02:07.102Z,53.42
2022-07-25T08:03:07.034Z,48.13
2022-07-25T08:04:08.036Z,47.31
2022-07-25T08:05:07.005Z,52.14
2022-07-25T08:06:06.992Z,53.19
2022-07-25T08:07:07.008Z,44.45
2022-07-25T08:08:06.975Z,47.88
2022-07-25T08:09:07.304Z,51.80
2022-07-25T08:10:06.964Z,50.92
2022-07-25T08:11:06.958Z,51.61
2022-07-25T08:12:06.982Z,52.69
2022-07-25T08:13:06.941Z,47.81
2022-07-25T08:14:07.379Z,50.05
2022-07-25T08:15:06.932Z,51.00
2022-07-25T08:16:07.032Z,50.84
2022-07-25T08:17:06.935Z,50.86
2022-07-25T08:18:06.912Z,46.92
2022-07-25T08:19:07.895Z,52.46
2022-07-25T08:20:27.894Z,51.71
2022-07-25T08:21:08.906Z,47.58
2022-07-25T08:22:06.931Z,50.33
2022-07-25T08:23:06.866Z,50.20
2022-07-25T08:24:07.371Z,51.90
2022-07-25T08:25:06.865Z,48.94
2022-07-25T08:26:06.848Z,48.42
2022-07-25T08:27:06.864Z,47.52
2022-07-25T08:28:06.831Z,50.24
2022-07-25T08:29:18.879Z,51.74
2022-07-25T08:30:08.814Z,56.39
2022-07-25T08:31:06.871Z,50.59
2022-07-25T08:32:06.830Z,47.80
2022-07-25T08:33:06.794Z,51.23
2022-07-25T08:34:07.218Z,50.88
2022-07-25T08:35:11.211Z,48.82
2022-07-25T08:36:07.768Z,47.54
2022-07-25T08:37:06.784Z,53.75
2022-07-25T08:38:06.755Z,49.32
2022-07-25T08:39:06.740Z,50.38
2022-07-25T08:40:06.736Z,52.37
2022-07-25T08:41:06.733Z,51.27
2022-07-25T08:42:10.915Z,50.71
2022-07-25T08:43:07.715Z,51.45
2022-07-25T08:44:06.987Z,47.56
2022-07-25T08:45:06.706Z,42.39
2022-07-25T08:46:06.747Z,53.62
2022-07-25T08:47:06.704Z,50.21
2022-07-25T08:48:06.689Z,51.56
2022-07-25T08:49:06.759Z,48.99
2022-07-25T08:50:06.670Z,43.66
2022-07-25T08:51:06.656Z,46.77
2022-07-25T08:52:06.678Z,52.18
2022-07-25T08:53:31.527Z,54.41
2022-07-25T08:54:08.955Z,51.81
2022-07-25T08:55:06.634Z,51.67
2022-07-25T08:56:14.791Z,49.87
2022-07-25T08:57:08.643Z,49.58
2022-07-25T08:58:06.614Z,48.41
2022-07-25T08:59:06.601Z,49.90
2022-07-25T09:00:06.593Z,50.64
2022-07-25T09:01:06.598Z,54.39
2022-07-25T09:02:06.648Z,47.81
2022-07-25T09:03:06.689Z,49.42
2022-07-25T09:04:07.006Z,46.23
2022-07-25T09:05:06.561Z,51.29
2022-07-25T09:06:06.548Z,55.78
2022-07-25T09:07:08.291Z,49.31
2022-07-25T09:08:07.526Z,48.75
2022-07-25T09:09:06.531Z,52.11
2022-07-25T09:10:06.516Z,48.11
2022-07-25T09:11:06.509Z,51.33
2022-07-25T09:12:06.562Z,51.25
2022-07-25T09:13:06.493Z,52.77
2022-07-25T09:14:07.238Z,50.93
2022-07-25T09:15:06.478Z,52.14
2022-07-25T09:16:06.533Z,51.11
2022-07-25T09:17:06.501Z,48.09
2022-07-25T09:18:09.991Z,42.68
2022-07-25T09:19:06.449Z,50.06
2022-07-25T09:20:06.447Z,52.87
2022-07-25T09:21:06.427Z,51.91
2022-07-25T09:22:07.507Z,50.69
2022-07-25T09:23:06.426Z,52.67
2022-07-25T09:24:06.853Z,50.59
2022-07-25T09:25:06.407Z,52.10
2022-07-25T09:26:06.403Z,52.08
2022-07-25T09:27:06.423Z,51.16
2022-07-25T09:28:06.393Z,49.78
2022-07-25T09:29:06.382Z,50.91
2022-07-25T09:30:06.376Z,51.10
2022-07-25T09:31:06.413Z,47.10
2022-07-25T09:32:06.391Z,50.39
2022-07-25T09:33:06.386Z,50.90
2022-07-25T09:34:06.560Z,52.30
2022-07-25T09:35:06.336Z,45.15
2022-07-25T09:36:06.326Z,51.69
2022-07-25T09:37:06.340Z,50.74
2022-07-25T09:38:06.307Z,49.26
2022-07-25T09:39:06.304Z,47.40
2022-07-25T09:40:06.300Z,50.86
2022-07-25T09:41:06.293Z,50.69
2022-07-25T09:42:06.317Z,49.59
2022-07-25T09:43:06.306Z,50.72
2022-07-25T09:44:06.554Z,49.76
2022-07-25T09:45:06.263Z,51.58
2022-07-25T09:46:06.299Z,47.72
2022-07-25T09:47:06.310Z,52.03
2022-07-25T09:48:06.244Z,54.01
2022-07-25T09:49:06.310Z,49.18
2022-07-25T09:50:06.222Z,48.62
2022-07-25T09:51:06.223Z,42.08
2022-07-25T09:52:06.217Z,51.63
2022-07-25T09:53:06.237Z,50.67
2022-07-25T09:54:06.571Z,47.94
2022-07-25T09:55:06.193Z,45.81
2022-07-25T09:56:06.208Z,48.76
2022-07-25T09:57:06.180Z,48.92
2022-07-25T09:58:06.206Z,49.69
2022-07-25T09:59:06.175Z,47.92
2022-07-25T10:00:06.151Z,50.19
2022-07-25T10:01:06.237Z,51.16
2022-07-25T10:02:06.145Z,46.45
2022-07-25T10:03:06.236Z,48.82
2022-07-25T10:04:06.415Z,48.16
2022-07-25T10:05:06.116Z,48.48
2022-07-25T10:06:06.123Z,49.48
2022-07-25T10:07:06.111Z,48.74
2022-07-25T10:08:06.123Z,48.14
2022-07-25T10:09:06.093Z,48.76
2022-07-25T10:10:06.084Z,45.65
2022-07-25T10:11:06.077Z,52.48
2022-07-25T10:12:06.072Z,48.12
2022-07-25T10:13:10.258Z,47.31
2022-07-25T10:14:07.375Z,50.60
2022-07-25T10:15:06.053Z,50.10
2022-07-25T10:16:06.043Z,51.78
2022-07-25T10:17:06.178Z,50.37
2022-07-25T10:18:06.059Z,46.96
2022-07-25T10:19:06.044Z,45.76
2022-07-25T10:20:06.017Z,48.74
2022-07-25T10:21:22.862Z,49.13
2022-07-25T10:22:08.008Z,47.62
2022-07-25T10:23:06.018Z,46.78
2022-07-25T10:24:06.409Z,49.12
2022-07-25T10:25:06.012Z,48.38
2022-07-25T10:26:05.977Z,51.73
2022-07-25T10:27:05.969Z,45.82
2022-07-25T10:28:05.985Z,49.56
2022-07-25T10:29:05.958Z,50.11
2022-07-25T10:30:05.971Z,47.13
2022-07-25T10:31:06.007Z,53.84
2022-07-25T10:32:05.936Z,47.84
2022-07-25T10:33:05.950Z,54.01
2022-07-25T10:34:06.283Z,49.58
2022-07-25T10:35:05.916Z,47.69
2022-07-25T10:36:05.934Z,49.78
2022-07-25T10:37:05.902Z,49.08
2022-07-25T10:38:05.914Z,52.29
2022-07-25T10:39:05.881Z,51.51
2022-07-25T10:40:05.881Z,50.06
2022-07-25T10:41:05.863Z,51.47
2022-07-25T10:42:05.858Z,54.40
2022-07-25T10:43:05.879Z,49.14
2022-07-25T10:44:06.159Z,50.17
2022-07-25T10:45:05.839Z,47.54
2022-07-25T10:46:05.898Z,50.83
2022-07-25T10:47:05.833Z,47.68
2022-07-25T10:48:05.858Z,51.04
2022-07-25T10:49:06.274Z,51.88
2022-07-25T10:50:19.051Z,50.70
2022-07-25T10:51:07.799Z,50.67
2022-07-25T10:52:05.794Z,48.81
2022-07-25T10:53:05.820Z,50.82
2022-07-25T10:54:05.778Z,49.10
2022-07-25T10:55:05.772Z,47.54
2022-07-25T10:56:06.639Z,50.15
2022-07-25T10:57:06.766Z,48.05
2022-07-25T10:58:17.556Z,50.07
2022-07-25T10:59:08.140Z,49.81
2022-07-25T11:00:05.736Z,50.02
2022-07-25T11:01:05.855Z,49.48
2022-07-25T11:02:05.810Z,48.46
2022-07-25T11:03:05.806Z,52.80
2022-07-25T11:04:05.735Z,49.89
2022-07-25T11:05:05.704Z,47.80
2022-07-25T11:06:05.694Z,49.28
2022-07-25T11:07:05.692Z,54.16
2022-07-25T11:08:21.062Z,51.09
2022-07-25T11:09:08.055Z,52.75
2022-07-25T11:10:05.672Z,50.71
2022-07-25T11:11:05.682Z,51.99
2022-07-25T11:12:05.657Z,51.09
2022-07-25T11:13:05.660Z,51.14
2022-07-25T11:14:05.667Z,49.75
2022-07-25T11:15:05.644Z,47.84
2022-07-25T11:16:05.633Z,49.18
2022-07-25T11:17:05.656Z,48.22
2022-07-25T11:18:05.611Z,48.40
2022-07-25T11:19:05.892Z,51.83
2022-07-25T11:20:05.607Z,48.30
2022-07-25T11:21:06.710Z,50.68
2022-07-25T11:22:06.598Z,53.22
2022-07-25T11:23:05.593Z,52.61
2022-07-25T11:24:05.605Z,51.87
2022-07-25T11:25:05.574Z,47.51
2022-07-25T11:26:05.570Z,50.36
2022-07-25T11:27:11.277Z,48.27
2022-07-25T11:28:07.551Z,47.08
2022-07-25T11:29:05.836Z,48.74
2022-07-25T11:30:05.545Z,47.04
2022-07-25T11:31:05.531Z,48.93
2022-07-25T11:32:05.614Z,48.97
2022-07-25T11:33:05.527Z,48.16
2022-07-25T11:34:05.544Z,51.16
2022-07-25T11:35:05.500Z,45.46
2022-07-25T11:36:06.496Z,48.96
2022-07-25T11:37:05.490Z,50.00
2022-07-25T11:38:06.463Z,47.57
2022-07-25T11:39:05.751Z,48.33
2022-07-25T11:40:05.474Z,49.61
2022-07-25T11:41:05.469Z,53.70
2022-07-25T11:42:05.459Z,49.45
2022-07-25T11:43:05.463Z,47.95
2022-07-25T11:44:05.484Z,51.96
2022-07-25T11:45:05.436Z,50.37
2022-07-25T11:46:05.489Z,51.37
2022-07-25T11:47:05.433Z,51.05
2022-07-25T11:48:05.421Z,50.19
2022-07-25T11:49:06.097Z,46.96
2022-07-25T11:50:05.420Z,46.86
2022-07-25T11:51:05.386Z,48.52
2022-07-25T11:52:05.388Z,45.85
2022-07-25T11:53:05.379Z,49.32
2022-07-25T11:54:05.374Z,48.18
2022-07-25T11:55:05.389Z,50.62
2022-07-25T11:56:25.418Z,44.52
2022-07-25T11:57:07.384Z,50.86
2022-07-25T11:58:05.338Z,49.85
2022-07-25T11:59:05.726Z,48.41
2022-07-25T12:00:05.419Z,46.22
2022-07-25T12:01:05.319Z,50.92
2022-07-25T12:02:05.426Z,47.67
2022-07-25T12:03:05.470Z,51.42
2022-07-25T12:04:05.297Z,50.38
2022-07-25T12:05:05.316Z,48.48
2022-07-25T12:06:05.287Z,47.88
2022-07-25T12:07:05.271Z,48.93
2022-07-25T12:08:05.264Z,51.91
2022-07-25T12:09:05.504Z,52.40
2022-07-25T12:10:05.309Z,47.11
2022-07-25T12:11:05.247Z,50.51
2022-07-25T12:12:05.264Z,49.30
2022-07-25T12:13:05.228Z,47.10
2022-07-25T12:14:05.225Z,55.46
2022-07-25T12:15:05.243Z,51.45
2022-07-25T12:16:05.213Z,51.75
2022-07-25T12:17:05.285Z,48.87
2022-07-25T12:18:05.191Z,48.82
2022-07-25T12:19:05.421Z,48.13
2022-07-25T12:20:10.638Z,49.32
2022-07-25T12:21:07.172Z,51.90
2022-07-25T12:22:05.163Z,51.99
2022-07-25T12:23:05.166Z,51.15
2022-07-25T12:24:05.156Z,49.42
2022-07-25T12:25:05.173Z,50.67
2022-07-25T12:26:05.134Z,51.56
2022-07-25T12:27:05.132Z,49.95
2022-07-25T12:28:05.128Z,49.46
2022-07-25T12:29:05.505Z,51.84
2022-07-25T12:30:05.142Z,48.33
2022-07-25T12:31:05.169Z,48.17
2022-07-25T12:32:05.096Z,49.96
2022-07-25T12:33:05.101Z,51.49
2022-07-25T12:34:05.111Z,53.66
2022-07-25T12:35:05.099Z,47.68
2022-07-25T12:36:08.428Z,53.42
2022-07-25T12:37:06.076Z,44.89
2022-07-25T12:38:05.055Z,55.13
2022-07-25T12:39:05.311Z,49.00
2022-07-25T12:40:05.081Z,50.70
2022-07-25T12:41:05.036Z,49.81
2022-07-25T12:42:05.053Z,48.94
2022-07-25T12:43:05.013Z,52.47
2022-07-25T12:44:06.021Z,52.01
2022-07-25T12:45:05.027Z,47.60
2022-07-25T12:46:05.061Z,51.20
2022-07-25T12:47:04.988Z,53.86
2022-07-25T12:48:04.993Z,49.91
2022-07-25T12:49:05.316Z,48.24
2022-07-25T12:50:04.995Z,47.12
2022-07-25T12:51:04.964Z,50.59
2022-07-25T12:52:04.956Z,55.00